Port Hope, MI

5:21 PM EDT on April 19, 2015 (GMT -0400)
Huron County Memorial | | Change Station
CLOSE
Current Station
Airport
Location: Bad Axe,
Elevation: 764 ft
Nearby Weather Stations

Elev 764 ft 43.78 °N, 82.99 °W | Updated 7 minutes ago

Mostly Cloudy
Mostly Cloudy
56 °F
Feels Like 56 °F
N
12
Wind Variable Wind from SE
Gusts 23 mph

Today
High -- | Low -- °F
--% Chance of Precip.
Yesterday
High -- | Low -- °F
Precip. -- in
6:41 AM 8:19 PM
New Moon, 2% visible
Pressure 29.81 in
Visibility 10.0 miles
Clouds Scattered Clouds 2800 ft
Scattered Clouds 6000 ft
Mostly Cloudy 10000 ft
Dew Point 34 °F
Humidity 44%
Rainfall 0.00 in
Snow Depth Not available.
UV 2 out of 12
Pollen 9.80 out of 12
Air Quality Not available.
Flu Activity Regional
METAR KBAX 192114Z AUTO 13010G20KT 10SM SCT028 SCT060 BKN100 13/01 A2981 RMK AO2 T01310009

More Conditions Fewer Conditions

Pressure 29.81 in
Visibility 10.0 miles
Clouds Scattered Clouds 2800 ft
Scattered Clouds 6000 ft
Mostly Cloudy 10000 ft
Dew Point 34 °F
Humidity 44%
Rainfall 0.00 in
Snow Depth Not available.
UV 2 out of 12
Pollen 9.80 out of 12
Air Quality Not available.
Flu Activity Regional
METAR KBAX 192114Z AUTO 13010G20KT 10SM SCT028 SCT060 BKN100 13/01 A2981 RMK AO2 T01310009

More Conditions Fewer Conditions

10-Day Weather Forecast

Almanac

Astronomy

Apr. 19, 2015 Rise Set
Actual Time
Civil Twilight
Nautical Twilight
Astronomical Twilight
Moon
Length of Visible Light
Length of Day
Tomorrow will be .
, % of the Moon is Illuminated

Today's Extremes

State Highs State Lows

Community

WunderPhotos

Upload Photos

1,814,988 photos uploaded!

WunderBlogs® & News

Nearby

Air Quality

  Air Quality AQ Index Pollutant
Not available.

Snow Depth

Station Depth Elevation

Earthquake Activity

City Distance Mag. Time & Date
Minimum magnitude displayed is 2.5.

Coastal Water Temperatures

Place Temperature

Stations

Nearby Weather Stations

Station Location Temp. Windchill Dew Point Humidity Wind Precip. Elev Updated Type